sim
Sign-in with your pilot id or email,
or register
Callsign
Passwort

Schedule Details

Flight Number: OEO4743
Departure: Kristiansand Airport (ENCN) at 09:10
Arrival: Munich Airport (EDDM) at 11:15

Weather Information
Getting current METAR information for ENCN 260850Z 02013G25KT 350V050 9999 BKN028 10/05 Q1001
Getting current METAR information for EDDM 260850Z 26018KT 9999 -DZRA SCT020 BKN030 08/04 Q1000 TEMPO 26020G30KT

Schedule Frequency

Route Map